sensor_id;sensor_type;location;lat;lon;timestamp;temperature;humidity
52181;DHT22;38158;53.338;6.514;2023-04-09T00:02:10;8.80;99.90
52181;DHT22;38158;53.338;6.514;2023-04-09T00:04:36;8.70;99.90
52181;DHT22;38158;53.338;6.514;2023-04-09T00:07:02;8.70;99.90
52181;DHT22;38158;53.338;6.514;2023-04-09T00:09:28;8.60;99.90
52181;DHT22;38158;53.338;6.514;2023-04-09T00:11:53;8.60;99.90
52181;DHT22;38158;53.338;6.514;2023-04-09T00:14:19;8.60;99.90
52181;DHT22;38158;53.338;6.514;2023-04-09T00:16:44;8.60;99.90
52181;DHT22;38158;53.338;6.514;2023-04-09T00:19:10;8.60;99.90
52181;DHT22;38158;53.338;6.514;2023-04-09T00:21:37;8.60;99.90
52181;DHT22;38158;53.338;6.514;2023-04-09T00:24:03;8.50;99.90
52181;DHT22;38158;53.338;6.514;2023-04-09T00:26:29;8.50;99.90
52181;DHT22;38158;53.338;6.514;2023-04-09T00:28:55;8.50;99.90
52181;DHT22;38158;53.338;6.514;2023-04-09T00:31:20;8.40;99.90
52181;DHT22;38158;53.338;6.514;2023-04-09T00:33:46;8.40;99.90
52181;DHT22;38158;53.338;6.514;2023-04-09T00:36:12;8.40;99.90
52181;DHT22;38158;53.338;6.514;2023-04-09T00:38:38;8.40;99.90
52181;DHT22;38158;53.338;6.514;2023-04-09T00:41:03;8.40;99.90
52181;DHT22;38158;53.338;6.514;2023-04-09T00:43:29;8.30;99.90
52181;DHT22;38158;53.338;6.514;2023-04-09T00:45:55;8.30;99.90
52181;DHT22;38158;53.338;6.514;2023-04-09T00:48:21;8.30;99.90
52181;DHT22;38158;53.338;6.514;2023-04-09T00:50:47;8.20;99.90
52181;DHT22;38158;53.338;6.514;2023-04-09T00:53:13;8.20;99.90
52181;DHT22;38158;53.338;6.514;2023-04-09T00:55:40;8.20;99.90
52181;DHT22;38158;53.338;6.514;2023-04-09T00:58:06;8.20;99.90
52181;DHT22;38158;53.338;6.514;2023-04-09T01:00:32;8.20;99.90
52181;DHT22;38158;53.338;6.514;2023-04-09T01:02:58;8.20;99.90
52181;DHT22;38158;53.338;6.514;2023-04-09T01:05:43;8.20;99.90
52181;DHT22;38158;53.338;6.514;2023-04-09T01:11:09;8.20;99.90
52181;DHT22;38158;53.338;6.514;2023-04-09T01:13:58;8.20;99.90
52181;DHT22;38158;53.338;6.514;2023-04-09T01:16:28;8.10;99.90
52181;DHT22;38158;53.338;6.514;2023-04-09T01:19:00;8.10;99.90
52181;DHT22;38158;53.338;6.514;2023-04-09T01:21:31;8.70;99.90
52181;DHT22;38158;53.338;6.514;2023-04-09T01:24:28;8.10;99.90
52181;DHT22;38158;53.338;6.514;2023-04-09T01:27:07;8.10;99.90
52181;DHT22;38158;53.338;6.514;2023-04-09T01:29:38;8.10;99.90
52181;DHT22;38158;53.338;6.514;2023-04-09T01:32:05;8.10;99.90
52181;DHT22;38158;53.338;6.514;2023-04-09T01:34:31;8.10;99.90
52181;DHT22;38158;53.338;6.514;2023-04-09T01:36:59;8.10;99.90
52181;DHT22;38158;53.338;6.514;2023-04-09T01:39:27;8.10;99.90
52181;DHT22;38158;53.338;6.514;2023-04-09T01:41:53;8.10;99.90
52181;DHT22;38158;53.338;6.514;2023-04-09T01:44:20;8.10;99.90
52181;DHT22;38158;53.338;6.514;2023-04-09T01:46:48;8.20;99.90
52181;DHT22;38158;53.338;6.514;2023-04-09T01:49:16;8.20;99.90
52181;DHT22;38158;53.338;6.514;2023-04-09T01:51:42;8.20;99.90
52181;DHT22;38158;53.338;6.514;2023-04-09T01:54:08;8.20;99.90
52181;DHT22;38158;53.338;6.514;2023-04-09T01:56:44;8.10;99.90
52181;DHT22;38158;53.338;6.514;2023-04-09T01:59:10;8.20;99.90
52181;DHT22;38158;53.338;6.514;2023-04-09T02:01:46;8.20;99.90
52181;DHT22;38158;53.338;6.514;2023-04-09T02:04:29;8.20;99.90
52181;DHT22;38158;53.338;6.514;2023-04-09T02:07:10;8.20;99.90
52181;DHT22;38158;53.338;6.514;2023-04-09T02:09:39;8.20;99.90
52181;DHT22;38158;53.338;6.514;2023-04-09T02:12:08;8.20;99.90
52181;DHT22;38158;53.338;6.514;2023-04-09T02:14:36;8.20;99.90
52181;DHT22;38158;53.338;6.514;2023-04-09T02:17:03;8.20;99.90
52181;DHT22;38158;53.338;6.514;2023-04-09T02:19:42;8.20;99.90
52181;DHT22;38158;53.338;6.514;2023-04-09T02:22:09;8.20;99.90
52181;DHT22;38158;53.338;6.514;2023-04-09T02:24:35;8.20;99.90
52181;DHT22;38158;53.338;6.514;2023-04-09T02:27:01;8.30;99.90
52181;DHT22;38158;53.338;6.514;2023-04-09T02:29:27;8.20;99.90
52181;DHT22;38158;53.338;6.514;2023-04-09T02:31:53;8.20;99.90
52181;DHT22;38158;53.338;6.514;2023-04-09T02:34:19;8.20;99.90
52181;DHT22;38158;53.338;6.514;2023-04-09T02:36:45;8.30;99.90
52181;DHT22;38158;53.338;6.514;2023-04-09T02:39:11;8.30;99.90
52181;DHT22;38158;53.338;6.514;2023-04-09T02:41:36;8.20;99.90
52181;DHT22;38158;53.338;6.514;2023-04-09T02:44:02;8.20;99.90
52181;DHT22;38158;53.338;6.514;2023-04-09T02:46:28;8.20;99.90
52181;DHT22;38158;53.338;6.514;2023-04-09T02:48:54;8.20;99.90
52181;DHT22;38158;53.338;6.514;2023-04-09T02:51:19;8.20;99.90
52181;DHT22;38158;53.338;6.514;2023-04-09T02:53:45;8.20;99.90
52181;DHT22;38158;53.338;6.514;2023-04-09T02:56:11;8.10;99.90
52181;DHT22;38158;53.338;6.514;2023-04-09T02:58:37;8.10;99.90
52181;DHT22;38158;53.338;6.514;2023-04-09T03:01:02;8.10;99.90
52181;DHT22;38158;53.338;6.514;2023-04-09T03:03:29;8.10;99.90
52181;DHT22;38158;53.338;6.514;2023-04-09T03:05:56;8.00;99.90
52181;DHT22;38158;53.338;6.514;2023-04-09T03:08:21;8.00;99.90
52181;DHT22;38158;53.338;6.514;2023-04-09T03:10:47;8.10;99.90
52181;DHT22;38158;53.338;6.514;2023-04-09T03:13:13;8.00;99.90
52181;DHT22;38158;53.338;6.514;2023-04-09T03:15:39;8.00;99.90
52181;DHT22;38158;53.338;6.514;2023-04-09T03:18:04;7.90;99.90
52181;DHT22;38158;53.338;6.514;2023-04-09T03:20:30;7.90;99.90
52181;DHT22;38158;53.338;6.514;2023-04-09T03:22:56;8.00;99.90
52181;DHT22;38158;53.338;6.514;2023-04-09T03:25:21;7.90;99.90
52181;DHT22;38158;53.338;6.514;2023-04-09T03:27:47;8.00;99.90
52181;DHT22;38158;53.338;6.514;2023-04-09T03:30:13;7.90;99.90
52181;DHT22;38158;53.338;6.514;2023-04-09T03:32:38;7.90;99.90
52181;DHT22;38158;53.338;6.514;2023-04-09T03:35:04;7.90;99.90
52181;DHT22;38158;53.338;6.514;2023-04-09T03:37:30;7.90;99.90
52181;DHT22;38158;53.338;6.514;2023-04-09T03:39:56;7.90;99.90
52181;DHT22;38158;53.338;6.514;2023-04-09T03:42:21;7.90;99.90
52181;DHT22;38158;53.338;6.514;2023-04-09T03:44:47;7.90;99.90
52181;DHT22;38158;53.338;6.514;2023-04-09T03:47:13;7.90;99.90
52181;DHT22;38158;53.338;6.514;2023-04-09T03:49:38;8.00;99.90
52181;DHT22;38158;53.338;6.514;2023-04-09T03:52:05;7.90;99.90
52181;DHT22;38158;53.338;6.514;2023-04-09T03:54:31;7.90;99.90
52181;DHT22;38158;53.338;6.514;2023-04-09T03:56:57;7.80;99.90
52181;DHT22;38158;53.338;6.514;2023-04-09T03:59:23;7.80;99.90
52181;DHT22;38158;53.338;6.514;2023-04-09T04:01:49;7.80;99.90
52181;DHT22;38158;53.338;6.514;2023-04-09T04:04:14;7.80;99.90
52181;DHT22;38158;53.338;6.514;2023-04-09T04:06:40;7.80;99.90
52181;DHT22;38158;53.338;6.514;2023-04-09T04:09:06;7.80;99.90
52181;DHT22;38158;53.338;6.514;2023-04-09T04:11:31;7.80;99.90
52181;DHT22;38158;53.338;6.514;2023-04-09T04:13:57;7.80;99.90
52181;DHT22;38158;53.338;6.514;2023-04-09T04:16:23;7.80;99.90
52181;DHT22;38158;53.338;6.514;2023-04-09T04:18:49;7.80;99.90
52181;DHT22;38158;53.338;6.514;2023-04-09T04:21:15;7.80;99.90
52181;DHT22;38158;53.338;6.514;2023-04-09T04:23:41;7.80;99.90
52181;DHT22;38158;53.338;6.514;2023-04-09T04:26:10;7.80;99.90
52181;DHT22;38158;53.338;6.514;2023-04-09T04:28:36;7.80;99.90
52181;DHT22;38158;53.338;6.514;2023-04-09T04:31:06;7.70;99.90
52181;DHT22;38158;53.338;6.514;2023-04-09T04:33:31;7.70;99.90
52181;DHT22;38158;53.338;6.514;2023-04-09T04:36:07;7.70;99.90
52181;DHT22;38158;53.338;6.514;2023-04-09T04:38:33;7.80;99.90
52181;DHT22;38158;53.338;6.514;2023-04-09T04:41:00;7.80;99.90
52181;DHT22;38158;53.338;6.514;2023-04-09T04:43:25;7.80;99.90
52181;DHT22;38158;53.338;6.514;2023-04-09T04:45:51;7.80;99.90
52181;DHT22;38158;53.338;6.514;2023-04-09T04:48:17;7.80;99.90
52181;DHT22;38158;53.338;6.514;2023-04-09T04:50:42;7.80;99.90
52181;DHT22;38158;53.338;6.514;2023-04-09T04:53:08;7.80;99.90
52181;DHT22;38158;53.338;6.514;2023-04-09T04:55:37;7.80;99.90
52181;DHT22;38158;53.338;6.514;2023-04-09T04:58:04;7.80;99.90
52181;DHT22;38158;53.338;6.514;2023-04-09T05:00:30;7.80;99.90
52181;DHT22;38158;53.338;6.514;2023-04-09T05:02:56;7.80;99.90
52181;DHT22;38158;53.338;6.514;2023-04-09T05:05:22;7.80;99.90
52181;DHT22;38158;53.338;6.514;2023-04-09T05:07:47;7.80;99.90
52181;DHT22;38158;53.338;6.514;2023-04-09T05:10:13;7.80;99.90
52181;DHT22;38158;53.338;6.514;2023-04-09T05:12:39;7.80;99.90
52181;DHT22;38158;53.338;6.514;2023-04-09T05:15:05;7.80;99.90
52181;DHT22;38158;53.338;6.514;2023-04-09T05:17:31;7.80;99.90
52181;DHT22;38158;53.338;6.514;2023-04-09T05:19:57;7.80;99.90
52181;DHT22;38158;53.338;6.514;2023-04-09T05:22:23;7.80;99.90
52181;DHT22;38158;53.338;6.514;2023-04-09T05:24:49;7.80;99.90
52181;DHT22;38158;53.338;6.514;2023-04-09T05:27:14;7.80;99.90
52181;DHT22;38158;53.338;6.514;2023-04-09T05:29:41;7.90;99.90
52181;DHT22;38158;53.338;6.514;2023-04-09T05:32:06;7.90;99.90
52181;DHT22;38158;53.338;6.514;2023-04-09T05:34:34;7.90;99.90
52181;DHT22;38158;53.338;6.514;2023-04-09T05:37:00;7.90;99.90
52181;DHT22;38158;53.338;6.514;2023-04-09T05:39:25;7.90;99.90
52181;DHT22;38158;53.338;6.514;2023-04-09T05:41:51;7.90;99.90
52181;DHT22;38158;53.338;6.514;2023-04-09T05:44:17;7.90;99.90
52181;DHT22;38158;53.338;6.514;2023-04-09T05:46:43;7.90;99.90
52181;DHT22;38158;53.338;6.514;2023-04-09T05:49:09;8.00;99.90
52181;DHT22;38158;53.338;6.514;2023-04-09T05:51:35;7.90;99.90
52181;DHT22;38158;53.338;6.514;2023-04-09T05:54:01;8.20;99.90
52181;DHT22;38158;53.338;6.514;2023-04-09T05:56:27;8.10;99.90
52181;DHT22;38158;53.338;6.514;2023-04-09T05:58:53;7.90;99.90
52181;DHT22;38158;53.338;6.514;2023-04-09T06:01:19;7.90;99.90
52181;DHT22;38158;53.338;6.514;2023-04-09T06:03:45;7.90;99.90
52181;DHT22;38158;53.338;6.514;2023-04-09T06:06:12;7.90;99.90
52181;DHT22;38158;53.338;6.514;2023-04-09T06:08:37;7.90;99.90
52181;DHT22;38158;53.338;6.514;2023-04-09T06:11:07;7.90;99.90
52181;DHT22;38158;53.338;6.514;2023-04-09T06:13:33;7.90;99.90
52181;DHT22;38158;53.338;6.514;2023-04-09T06:15:58;7.90;99.90
52181;DHT22;38158;53.338;6.514;2023-04-09T06:18:24;7.90;99.90
52181;DHT22;38158;53.338;6.514;2023-04-09T06:21:00;7.90;99.90
52181;DHT22;38158;53.338;6.514;2023-04-09T06:23:26;7.90;99.90
52181;DHT22;38158;53.338;6.514;2023-04-09T06:25:52;7.90;99.90
52181;DHT22;38158;53.338;6.514;2023-04-09T06:28:18;7.90;99.90
52181;DHT22;38158;53.338;6.514;2023-04-09T06:30:43;7.90;99.90
52181;DHT22;38158;53.338;6.514;2023-04-09T06:33:09;8.00;99.90
52181;DHT22;38158;53.338;6.514;2023-04-09T06:35:35;8.00;99.90
52181;DHT22;38158;53.338;6.514;2023-04-09T06:38:01;8.00;99.90
52181;DHT22;38158;53.338;6.514;2023-04-09T06:40:26;8.10;99.90
52181;DHT22;38158;53.338;6.514;2023-04-09T06:42:52;8.10;99.90
52181;DHT22;38158;53.338;6.514;2023-04-09T06:45:17;8.10;99.90
52181;DHT22;38158;53.338;6.514;2023-04-09T06:47:43;8.10;99.90
52181;DHT22;38158;53.338;6.514;2023-04-09T06:50:09;8.30;99.90
52181;DHT22;38158;53.338;6.514;2023-04-09T06:52:35;8.20;99.90
52181;DHT22;38158;53.338;6.514;2023-04-09T06:55:00;8.20;99.90
52181;DHT22;38158;53.338;6.514;2023-04-09T06:57:26;8.20;99.90
52181;DHT22;38158;53.338;6.514;2023-04-09T06:59:52;8.20;99.90
52181;DHT22;38158;53.338;6.514;2023-04-09T07:02:17;8.20;99.90
52181;DHT22;38158;53.338;6.514;2023-04-09T07:04:43;8.20;99.90
52181;DHT22;38158;53.338;6.514;2023-04-09T07:07:09;8.20;99.90
52181;DHT22;38158;53.338;6.514;2023-04-09T07:09:34;8.20;99.90
52181;DHT22;38158;53.338;6.514;2023-04-09T07:12:00;8.30;99.90
52181;DHT22;38158;53.338;6.514;2023-04-09T07:14:26;8.20;99.90
52181;DHT22;38158;53.338;6.514;2023-04-09T07:16:52;8.20;99.90
52181;DHT22;38158;53.338;6.514;2023-04-09T07:19:17;8.30;99.90
52181;DHT22;38158;53.338;6.514;2023-04-09T07:21:43;8.30;99.90
52181;DHT22;38158;53.338;6.514;2023-04-09T07:24:09;8.30;99.90
52181;DHT22;38158;53.338;6.514;2023-04-09T07:26:34;8.30;99.90
52181;DHT22;38158;53.338;6.514;2023-04-09T07:29:00;8.20;99.90
52181;DHT22;38158;53.338;6.514;2023-04-09T07:31:28;8.30;99.90
52181;DHT22;38158;53.338;6.514;2023-04-09T07:33:53;8.40;99.90
52181;DHT22;38158;53.338;6.514;2023-04-09T07:36:19;8.30;99.90
52181;DHT22;38158;53.338;6.514;2023-04-09T07:38:45;8.30;99.90
52181;DHT22;38158;53.338;6.514;2023-04-09T07:41:10;8.40;99.90
52181;DHT22;38158;53.338;6.514;2023-04-09T07:43:36;8.40;99.90
52181;DHT22;38158;53.338;6.514;2023-04-09T07:46:03;8.40;99.90
52181;DHT22;38158;53.338;6.514;2023-04-09T07:48:28;8.30;99.90
52181;DHT22;38158;53.338;6.514;2023-04-09T07:50:54;8.30;99.90
52181;DHT22;38158;53.338;6.514;2023-04-09T07:53:20;8.30;99.90
52181;DHT22;38158;53.338;6.514;2023-04-09T07:55:45;8.30;99.90
52181;DHT22;38158;53.338;6.514;2023-04-09T07:58:11;8.40;99.90
52181;DHT22;38158;53.338;6.514;2023-04-09T08:00:37;8.50;99.90
52181;DHT22;38158;53.338;6.514;2023-04-09T08:03:02;8.50;99.90
52181;DHT22;38158;53.338;6.514;2023-04-09T08:05:28;8.60;99.90
52181;DHT22;38158;53.338;6.514;2023-04-09T08:07:55;8.60;99.90
52181;DHT22;38158;53.338;6.514;2023-04-09T08:10:20;8.70;99.90
52181;DHT22;38158;53.338;6.514;2023-04-09T08:12:47;8.70;99.90
52181;DHT22;38158;53.338;6.514;2023-04-09T08:15:13;8.80;99.90
52181;DHT22;38158;53.338;6.514;2023-04-09T08:17:39;8.80;99.90
52181;DHT22;38158;53.338;6.514;2023-04-09T08:20:05;8.80;99.90
52181;DHT22;38158;53.338;6.514;2023-04-09T08:22:31;8.80;99.90
52181;DHT22;38158;53.338;6.514;2023-04-09T08:24:57;8.80;99.90
52181;DHT22;38158;53.338;6.514;2023-04-09T08:27:23;8.80;99.90
52181;DHT22;38158;53.338;6.514;2023-04-09T08:29:49;8.80;99.90
52181;DHT22;38158;53.338;6.514;2023-04-09T08:32:15;8.80;99.90
52181;DHT22;38158;53.338;6.514;2023-04-09T08:34:41;8.90;99.90
52181;DHT22;38158;53.338;6.514;2023-04-09T08:37:06;8.90;99.90
52181;DHT22;38158;53.338;6.514;2023-04-09T08:39:32;8.90;99.90
52181;DHT22;38158;53.338;6.514;2023-04-09T08:41:59;9.00;99.90
52181;DHT22;38158;53.338;6.514;2023-04-09T08:44:28;9.00;99.90
52181;DHT22;38158;53.338;6.514;2023-04-09T08:46:55;9.00;99.90
52181;DHT22;38158;53.338;6.514;2023-04-09T08:49:20;9.00;99.90
52181;DHT22;38158;53.338;6.514;2023-04-09T08:51:47;9.00;99.90
52181;DHT22;38158;53.338;6.514;2023-04-09T08:54:17;9.00;99.90
52181;DHT22;38158;53.338;6.514;2023-04-09T08:56:46;8.90;99.90
52181;DHT22;38158;53.338;6.514;2023-04-09T08:59:15;8.90;99.90
52181;DHT22;38158;53.338;6.514;2023-04-09T09:01:44;9.00;99.90
52181;DHT22;38158;53.338;6.514;2023-04-09T09:04:12;9.00;99.90
52181;DHT22;38158;53.338;6.514;2023-04-09T09:06:40;9.10;99.90
52181;DHT22;38158;53.338;6.514;2023-04-09T09:09:10;9.20;99.90
52181;DHT22;38158;53.338;6.514;2023-04-09T09:14:06;9.20;99.90
52181;DHT22;38158;53.338;6.514;2023-04-09T09:16:37;9.30;99.90
52181;DHT22;38158;53.338;6.514;2023-04-09T09:19:27;9.30;99.90
52181;DHT22;38158;53.338;6.514;2023-04-09T09:22:12;9.30;99.90
52181;DHT22;38158;53.338;6.514;2023-04-09T09:24:46;9.30;99.90
52181;DHT22;38158;53.338;6.514;2023-04-09T09:27:35;9.30;99.90
52181;DHT22;38158;53.338;6.514;2023-04-09T09:30:05;9.40;99.90
52181;DHT22;38158;53.338;6.514;2023-04-09T09:32:32;9.50;99.90
52181;DHT22;38158;53.338;6.514;2023-04-09T09:35:04;9.60;99.90
52181;DHT22;38158;53.338;6.514;2023-04-09T09:37:31;9.60;99.90
52181;DHT22;38158;53.338;6.514;2023-04-09T09:39:58;9.70;99.90
52181;DHT22;38158;53.338;6.514;2023-04-09T09:42:24;9.70;99.90
52181;DHT22;38158;53.338;6.514;2023-04-09T09:44:52;9.80;99.90
52181;DHT22;38158;53.338;6.514;2023-04-09T09:47:19;9.90;99.90
52181;DHT22;38158;53.338;6.514;2023-04-09T09:49:47;9.90;99.90
52181;DHT22;38158;53.338;6.514;2023-04-09T09:52:14;10.00;99.90
52181;DHT22;38158;53.338;6.514;2023-04-09T09:54:42;10.00;99.90
52181;DHT22;38158;53.338;6.514;2023-04-09T09:57:10;10.00;99.90
52181;DHT22;38158;53.338;6.514;2023-04-09T09:59:49;10.10;99.90
52181;DHT22;38158;53.338;6.514;2023-04-09T10:02:19;10.10;99.90
52181;DHT22;38158;53.338;6.514;2023-04-09T10:04:47;10.10;99.90
52181;DHT22;38158;53.338;6.514;2023-04-09T10:07:13;10.20;99.90
52181;DHT22;38158;53.338;6.514;2023-04-09T10:09:42;10.30;99.90
52181;DHT22;38158;53.338;6.514;2023-04-09T10:12:11;10.40;99.90
52181;DHT22;38158;53.338;6.514;2023-04-09T10:14:37;10.40;99.90
52181;DHT22;38158;53.338;6.514;2023-04-09T10:17:04;10.50;99.90
52181;DHT22;38158;53.338;6.514;2023-04-09T10:19:40;10.50;99.90
52181;DHT22;38158;53.338;6.514;2023-04-09T10:22:11;10.50;99.90
52181;DHT22;38158;53.338;6.514;2023-04-09T10:24:38;10.60;99.90
52181;DHT22;38158;53.338;6.514;2023-04-09T10:27:15;10.60;99.90
52181;DHT22;38158;53.338;6.514;2023-04-09T10:29:45;10.60;99.90
52181;DHT22;38158;53.338;6.514;2023-04-09T10:32:12;10.70;99.90
52181;DHT22;38158;53.338;6.514;2023-04-09T10:34:42;10.80;99.90
52181;DHT22;38158;53.338;6.514;2023-04-09T10:37:16;10.90;99.90
52181;DHT22;38158;53.338;6.514;2023-04-09T10:39:46;11.00;99.90
52181;DHT22;38158;53.338;6.514;2023-04-09T10:45:12;11.20;99.90
52181;DHT22;38158;53.338;6.514;2023-04-09T10:47:40;11.30;99.90
52181;DHT22;38158;53.338;6.514;2023-04-09T10:52:41;11.50;99.90
52181;DHT22;38158;53.338;6.514;2023-04-09T10:55:09;11.60;99.90
52181;DHT22;38158;53.338;6.514;2023-04-09T10:57:35;11.70;99.90
52181;DHT22;38158;53.338;6.514;2023-04-09T11:00:01;11.70;99.90
52181;DHT22;38158;53.338;6.514;2023-04-09T11:07:39;12.00;99.90
52181;DHT22;38158;53.338;6.514;2023-04-09T11:10:07;12.00;99.90
52181;DHT22;38158;53.338;6.514;2023-04-09T11:12:33;12.10;99.90
52181;DHT22;38158;53.338;6.514;2023-04-09T11:14:58;12.20;99.90
52181;DHT22;38158;53.338;6.514;2023-04-09T11:17:24;12.40;99.90
52181;DHT22;38158;53.338;6.514;2023-04-09T11:19:50;12.50;99.90
52181;DHT22;38158;53.338;6.514;2023-04-09T11:22:16;12.70;99.90
52181;DHT22;38158;53.338;6.514;2023-04-09T11:24:45;12.70;99.90
52181;DHT22;38158;53.338;6.514;2023-04-09T11:27:12;12.90;99.90
52181;DHT22;38158;53.338;6.514;2023-04-09T11:29:38;13.10;99.90
52181;DHT22;38158;53.338;6.514;2023-04-09T11:32:04;13.30;99.90
52181;DHT22;38158;53.338;6.514;2023-04-09T11:34:30;13.40;99.90
52181;DHT22;38158;53.338;6.514;2023-04-09T11:36:56;13.50;99.90
52181;DHT22;38158;53.338;6.514;2023-04-09T11:39:23;13.50;99.90
52181;DHT22;38158;53.338;6.514;2023-04-09T11:41:49;13.40;99.90
52181;DHT22;38158;53.338;6.514;2023-04-09T11:44:15;13.20;99.90
52181;DHT22;38158;53.338;6.514;2023-04-09T11:46:41;13.10;99.90
52181;DHT22;38158;53.338;6.514;2023-04-09T11:49:07;13.00;99.90
52181;DHT22;38158;53.338;6.514;2023-04-09T11:51:33;13.00;99.90
52181;DHT22;38158;53.338;6.514;2023-04-09T11:54:06;12.90;99.90
52181;DHT22;38158;53.338;6.514;2023-04-09T11:56:34;13.00;99.90
52181;DHT22;38158;53.338;6.514;2023-04-09T11:59:01;13.10;99.90
52181;DHT22;38158;53.338;6.514;2023-04-09T12:01:33;13.20;99.90
52181;DHT22;38158;53.338;6.514;2023-04-09T12:03:59;13.40;99.90
52181;DHT22;38158;53.338;6.514;2023-04-09T12:06:26;13.40;99.90
52181;DHT22;38158;53.338;6.514;2023-04-09T12:08:56;13.50;99.90
52181;DHT22;38158;53.338;6.514;2023-04-09T12:11:29;13.60;99.90
52181;DHT22;38158;53.338;6.514;2023-04-09T12:14:00;13.70;99.90
52181;DHT22;38158;53.338;6.514;2023-04-09T12:16:38;13.80;99.90
52181;DHT22;38158;53.338;6.514;2023-04-09T12:19:07;14.00;99.90
52181;DHT22;38158;53.338;6.514;2023-04-09T12:21:49;14.20;99.90
52181;DHT22;38158;53.338;6.514;2023-04-09T12:24:17;14.20;99.90
52181;DHT22;38158;53.338;6.514;2023-04-09T12:26:45;14.20;99.90
52181;DHT22;38158;53.338;6.514;2023-04-09T12:29:14;14.10;99.90
52181;DHT22;38158;53.338;6.514;2023-04-09T12:31:40;14.00;99.90
52181;DHT22;38158;53.338;6.514;2023-04-09T12:34:06;13.90;99.90
52181;DHT22;38158;53.338;6.514;2023-04-09T12:36:32;13.90;99.90
52181;DHT22;38158;53.338;6.514;2023-04-09T12:38:58;13.90;99.90
52181;DHT22;38158;53.338;6.514;2023-04-09T12:41:23;13.80;99.90
52181;DHT22;38158;53.338;6.514;2023-04-09T12:43:50;13.80;99.90
52181;DHT22;38158;53.338;6.514;2023-04-09T12:46:17;13.90;99.90
52181;DHT22;38158;53.338;6.514;2023-04-09T12:48:43;14.00;99.90
52181;DHT22;38158;53.338;6.514;2023-04-09T12:51:09;14.10;99.90
52181;DHT22;38158;53.338;6.514;2023-04-09T12:53:36;14.30;99.90
52181;DHT22;38158;53.338;6.514;2023-04-09T12:56:01;14.60;99.90
52181;DHT22;38158;53.338;6.514;2023-04-09T12:58:27;14.70;99.90
52181;DHT22;38158;53.338;6.514;2023-04-09T13:00:53;14.80;99.90
52181;DHT22;38158;53.338;6.514;2023-04-09T13:03:21;14.80;99.90
52181;DHT22;38158;53.338;6.514;2023-04-09T13:05:47;14.90;99.90
52181;DHT22;38158;53.338;6.514;2023-04-09T13:08:13;14.80;99.90
52181;DHT22;38158;53.338;6.514;2023-04-09T13:10:39;14.70;99.90
52181;DHT22;38158;53.338;6.514;2023-04-09T13:13:05;14.70;99.90
52181;DHT22;38158;53.338;6.514;2023-04-09T13:15:36;14.70;99.90
52181;DHT22;38158;53.338;6.514;2023-04-09T13:18:02;14.70;99.90
52181;DHT22;38158;53.338;6.514;2023-04-09T13:20:28;14.70;99.90
52181;DHT22;38158;53.338;6.514;2023-04-09T13:22:55;14.70;99.90
52181;DHT22;38158;53.338;6.514;2023-04-09T13:25:21;14.70;99.90
52181;DHT22;38158;53.338;6.514;2023-04-09T13:27:47;14.70;99.90
52181;DHT22;38158;53.338;6.514;2023-04-09T13:30:13;14.70;99.90
52181;DHT22;38158;53.338;6.514;2023-04-09T13:32:38;14.60;99.90
52181;DHT22;38158;53.338;6.514;2023-04-09T13:35:05;14.70;99.90
52181;DHT22;38158;53.338;6.514;2023-04-09T13:37:31;14.70;99.90
52181;DHT22;38158;53.338;6.514;2023-04-09T13:39:57;14.80;99.90
52181;DHT22;38158;53.338;6.514;2023-04-09T13:42:23;14.80;99.90
52181;DHT22;38158;53.338;6.514;2023-04-09T13:44:48;14.80;99.90
52181;DHT22;38158;53.338;6.514;2023-04-09T13:47:16;14.70;99.90
52181;DHT22;38158;53.338;6.514;2023-04-09T13:49:42;14.60;99.90
52181;DHT22;38158;53.338;6.514;2023-04-09T13:52:09;14.60;99.90
52181;DHT22;38158;53.338;6.514;2023-04-09T13:54:35;14.60;99.90
52181;DHT22;38158;53.338;6.514;2023-04-09T13:57:01;14.60;99.90
52181;DHT22;38158;53.338;6.514;2023-04-09T13:59:27;14.70;99.90
52181;DHT22;38158;53.338;6.514;2023-04-09T14:01:53;14.80;99.90
52181;DHT22;38158;53.338;6.514;2023-04-09T14:04:19;14.90;99.90
52181;DHT22;38158;53.338;6.514;2023-04-09T14:06:45;15.20;99.90
52181;DHT22;38158;53.338;6.514;2023-04-09T14:09:11;15.20;99.90
52181;DHT22;38158;53.338;6.514;2023-04-09T14:11:37;15.30;99.90
52181;DHT22;38158;53.338;6.514;2023-04-09T14:14:02;15.30;99.90
52181;DHT22;38158;53.338;6.514;2023-04-09T14:16:28;15.30;99.90
52181;DHT22;38158;53.338;6.514;2023-04-09T14:18:55;15.40;99.90
52181;DHT22;38158;53.338;6.514;2023-04-09T14:21:21;15.30;99.90
52181;DHT22;38158;53.338;6.514;2023-04-09T14:23:47;15.20;99.90
52181;DHT22;38158;53.338;6.514;2023-04-09T14:26:13;15.10;99.90
52181;DHT22;38158;53.338;6.514;2023-04-09T14:28:38;15.10;99.90
52181;DHT22;38158;53.338;6.514;2023-04-09T14:31:04;15.20;99.90
52181;DHT22;38158;53.338;6.514;2023-04-09T14:33:30;15.40;99.90
52181;DHT22;38158;53.338;6.514;2023-04-09T14:35:56;15.50;99.90
52181;DHT22;38158;53.338;6.514;2023-04-09T14:38:23;15.50;99.90
52181;DHT22;38158;53.338;6.514;2023-04-09T14:40:49;15.40;99.90
52181;DHT22;38158;53.338;6.514;2023-04-09T14:43:15;15.40;99.90
52181;DHT22;38158;53.338;6.514;2023-04-09T14:45:41;15.40;99.90
52181;DHT22;38158;53.338;6.514;2023-04-09T14:48:07;15.40;99.90
52181;DHT22;38158;53.338;6.514;2023-04-09T14:50:33;15.30;99.90
52181;DHT22;38158;53.338;6.514;2023-04-09T14:52:59;15.30;99.90
52181;DHT22;38158;53.338;6.514;2023-04-09T14:55:26;15.30;99.90
52181;DHT22;38158;53.338;6.514;2023-04-09T14:57:52;15.10;99.90
52181;DHT22;38158;53.338;6.514;2023-04-09T15:00:18;15.10;99.90
52181;DHT22;38158;53.338;6.514;2023-04-09T15:02:43;15.00;99.90
52181;DHT22;38158;53.338;6.514;2023-04-09T15:05:09;15.00;99.90
52181;DHT22;38158;53.338;6.514;2023-04-09T15:07:35;15.00;99.90
52181;DHT22;38158;53.338;6.514;2023-04-09T15:10:01;14.90;99.90
52181;DHT22;38158;53.338;6.514;2023-04-09T15:12:29;14.90;99.90
52181;DHT22;38158;53.338;6.514;2023-04-09T15:14:55;14.80;99.90
52181;DHT22;38158;53.338;6.514;2023-04-09T15:17:24;14.70;99.90
52181;DHT22;38158;53.338;6.514;2023-04-09T15:19:51;14.60;99.90
52181;DHT22;38158;53.338;6.514;2023-04-09T15:22:17;14.60;99.90
52181;DHT22;38158;53.338;6.514;2023-04-09T15:24:43;14.50;99.90
52181;DHT22;38158;53.338;6.514;2023-04-09T15:27:09;14.50;99.90
52181;DHT22;38158;53.338;6.514;2023-04-09T15:29:35;14.50;99.90
52181;DHT22;38158;53.338;6.514;2023-04-09T15:32:01;14.50;99.90
52181;DHT22;38158;53.338;6.514;2023-04-09T15:34:26;14.50;99.90
52181;DHT22;38158;53.338;6.514;2023-04-09T15:36:52;14.50;99.90
52181;DHT22;38158;53.338;6.514;2023-04-09T15:39:18;14.50;99.90
52181;DHT22;38158;53.338;6.514;2023-04-09T15:41:44;14.50;99.90
52181;DHT22;38158;53.338;6.514;2023-04-09T15:44:10;14.40;99.90
52181;DHT22;38158;53.338;6.514;2023-04-09T15:46:39;14.40;99.90
52181;DHT22;38158;53.338;6.514;2023-04-09T15:49:04;14.40;99.90
52181;DHT22;38158;53.338;6.514;2023-04-09T15:51:30;14.40;99.90
52181;DHT22;38158;53.338;6.514;2023-04-09T15:53:57;14.30;99.90
52181;DHT22;38158;53.338;6.514;2023-04-09T15:56:23;14.30;99.90